Saint George, Canada
Current Conditions -  °F | °C
As of 10:00 AM on Thursday 29 Jan 2015 (Local Time) from CYSJ Reporting Station
Clear Clear  
Wind Chill: 10°   Ceiling: Unl
Heat Index: 10°   Visibility: 15mi
Dew Point:   Wind: 2mph
Humidity: 67%   Direction: NA
Pressure: 30.25"   Gusts: NA
Location:  45.13°N, 66.82°W
Report Text: CYSJ 291400Z VRB02KT 15SM SKC M12/M17 A3025 RMK SLP254
Loading
Personal Weather Stations






























Interactive Weather Map New forecast layout! Learn more

10-Day Weather Forecast

Advertisements
Track Severe Weather on mobile